Skip Navigation Links Skip Navigation Links

Current Weather

Newark Intl, Newark, N.J.

For information only: do not use for flight planning or navigation.
Latest weather
Observation time Wednesday, August 12, 2020 12:51 PM EDT
Local time Wednesday, August 12, 2020 1:31 PM EDT
Flight conditions Visual Meteorological Conditions
Winds
Wind direction variable
Wind speed 5 mph
Visibility 10 mi.
Sky condition
Ceiling unlimited
Cloud layer scattered clouds 4,000 ft.
Temperature 89°F
Dewpoint 71°F
Altimeter 30.00 in.Hg
Derived measurements
Relative humidity 56%
Heat index 95°F
Density altitude 2186 ft.
Sea-level pressure 30.00 in.Hg
Remarks
Automated weather observing station with precipitation discriminator.
Towering cumulus clouds observed northeast and southwest and west.
METAR KEWR 121651Z VRB04KT 10SM SCT040TCU 32/22 A3000 RMK AO2 SLP158 TCU NE AND SW AND W T03170217

Settings

Location code

InnerDrive.Weather 4.0.6770.0 Release CLR 4.0.30319.42000
Copyright ©2018 Inner Drive Technology. All rights reserved. Portions Copyright ©1986-2018 David Braverman.

Find weather

Site navigation


Skip Navigation Links

Place info

Page info

PayPal - The safer, easier way to pay online!

Return home.

Copyright ©2020 Inner Drive Technology. Purveyors of fine, hand-crafted computer software. Page printed 2020-08-12T17:31:01 UTC.